createdAt,value
2019-01-28T00:02:30.264Z,92794.81
2019-01-28T00:05:37.788Z,92799.16
2019-01-28T00:08:45.481Z,92801.38
2019-01-28T00:11:53.182Z,92800.23
2019-01-28T00:15:00.886Z,92807.55
2019-01-28T00:18:08.372Z,92815.09
2019-01-28T00:21:16.097Z,92825.05
2019-01-28T00:24:23.981Z,92834.42
2019-01-28T00:27:32.676Z,92847.31
2019-01-28T00:30:40.500Z,92862.39
2019-01-28T00:33:47.837Z,92876.25
2019-01-28T00:36:55.416Z,92909.27
2019-01-28T00:40:04.036Z,92911.81
2019-01-28T00:43:11.415Z,92927.05
2019-01-28T00:46:19.023Z,92935.50
2019-01-28T00:49:26.289Z,92951.67
2019-01-28T00:52:33.767Z,92976.48
2019-01-28T00:55:41.371Z,92984.27
2019-01-28T00:58:49.012Z,92990.64
2019-01-28T01:01:56.825Z,92995.16
2019-01-28T01:05:05.340Z,93002.27
2019-01-28T01:08:13.239Z,93001.49
2019-01-28T01:11:20.580Z,93012.18
2019-01-28T01:14:28.322Z,93014.94
2019-01-28T01:17:36.087Z,93020.52
2019-01-28T01:20:43.587Z,93018.44
2019-01-28T01:23:52.196Z,93037.47
2019-01-28T01:27:00.092Z,93037.92
2019-01-28T01:30:11.650Z,93041.31
2019-01-28T01:33:18.819Z,93041.16
2019-01-28T01:36:26.303Z,93045.94
2019-01-28T01:39:33.935Z,93046.98
2019-01-28T01:42:41.323Z,93044.70
2019-01-28T01:45:48.709Z,93055.47
2019-01-28T01:48:56.224Z,93057.97
2019-01-28T01:52:03.863Z,93065.92
2019-01-28T01:55:12.995Z,93057.31
2019-01-28T01:58:20.416Z,93054.16
2019-01-28T02:01:27.952Z,93061.09
2019-01-28T02:04:35.182Z,93059.70
2019-01-28T02:07:43.146Z,93065.28
2019-01-28T02:10:50.470Z,93070.61
2019-01-28T02:13:57.978Z,93068.69
2019-01-28T02:17:05.517Z,93074.38
2019-01-28T02:20:13.835Z,93080.69
2019-01-28T02:23:21.159Z,93090.37
2019-01-28T02:26:28.835Z,93090.37
2019-01-28T02:29:36.519Z,93092.06
2019-01-28T02:32:44.240Z,93095.10
2019-01-28T02:35:51.644Z,93076.06
2019-01-28T02:38:59.433Z,93095.52
2019-01-28T02:42:06.943Z,93088.48
2019-01-28T02:45:15.551Z,93091.02
2019-01-28T02:48:23.168Z,93096.14
2019-01-28T02:51:30.751Z,93100.17
2019-01-28T02:54:38.390Z,93102.87
2019-01-28T02:57:46.424Z,93100.48
2019-01-28T03:00:54.276Z,93090.57
2019-01-28T03:04:01.892Z,93103.95
2019-01-28T03:07:09.188Z,93097.88
2019-01-28T03:10:21.649Z,93107.33
2019-01-28T03:13:29.419Z,93107.29
2019-01-28T03:16:37.220Z,93102.11
2019-01-28T03:19:44.545Z,93100.22
2019-01-28T03:22:52.150Z,93104.59
2019-01-28T03:25:59.924Z,93105.21
2019-01-28T03:29:07.674Z,93109.63
2019-01-28T03:32:15.306Z,93109.67
2019-01-28T03:35:22.704Z,93109.63
2019-01-28T03:38:30.369Z,93109.44
2019-01-28T03:41:38.171Z,93111.47
2019-01-28T03:44:45.653Z,93109.47
2019-01-28T03:47:53.371Z,93106.25
2019-01-28T03:51:01.189Z,93112.02
2019-01-28T03:54:08.890Z,93112.58
2019-01-28T03:57:16.796Z,93111.89
2019-01-28T04:00:25.002Z,93108.09
2019-01-28T04:03:32.512Z,93107.51
2019-01-28T04:06:40.271Z,93104.55
2019-01-28T04:09:48.008Z,93110.75
2019-01-28T04:12:55.672Z,93116.52
2019-01-28T04:16:03.292Z,93106.98
2019-01-28T04:19:10.728Z,93107.02
2019-01-28T04:22:18.136Z,93104.09
2019-01-28T04:25:25.767Z,93099.27
2019-01-28T04:28:33.073Z,93099.53
2019-01-28T04:31:42.219Z,93098.29
2019-01-28T04:34:49.860Z,93094.57
2019-01-28T04:37:57.357Z,93090.57
2019-01-28T04:41:04.937Z,93098.02
2019-01-28T04:44:12.517Z,93091.95
2019-01-28T04:47:19.933Z,93090.84
2019-01-28T04:50:30.684Z,93099.98
2019-01-28T04:53:38.257Z,93095.61
2019-01-28T04:56:45.945Z,93094.84
2019-01-28T04:59:53.879Z,93090.80
2019-01-28T05:06:16.697Z,93090.57
2019-01-28T05:09:24.096Z,93086.19
2019-01-28T05:12:31.826Z,93086.26
2019-01-28T05:15:39.707Z,93087.92
2019-01-28T05:18:47.023Z,93093.64
2019-01-28T05:21:54.703Z,93092.34
2019-01-28T05:25:02.496Z,93093.77
2019-01-28T05:28:09.888Z,93085.92
2019-01-28T05:31:17.395Z,93086.69
2019-01-28T05:34:42.154Z,93093.69
2019-01-28T05:37:50.454Z,93093.72
2019-01-28T05:40:57.761Z,93096.07
2019-01-28T05:44:05.259Z,93089.69
2019-01-28T05:47:12.887Z,93089.22
2019-01-28T05:50:20.930Z,93086.45
2019-01-28T05:53:28.736Z,93091.80
2019-01-28T05:56:36.514Z,93096.90
2019-01-28T05:59:44.221Z,93100.89
2019-01-28T06:02:51.714Z,93098.94
2019-01-28T06:05:59.500Z,93093.87
2019-01-28T06:09:08.916Z,93091.42
2019-01-28T06:12:16.400Z,93084.19
2019-01-28T06:15:24.443Z,93087.19
2019-01-28T06:18:31.968Z,93083.23
2019-01-28T06:21:39.257Z,93087.69
2019-01-28T06:24:47.077Z,93089.72
2019-01-28T06:27:54.530Z,93092.88
2019-01-28T06:31:02.031Z,93097.06
2019-01-28T06:34:09.541Z,93105.22
2019-01-28T06:37:17.028Z,93105.38
2019-01-28T06:40:31.186Z,93111.56
2019-01-28T06:43:38.629Z,93118.17
2019-01-28T06:46:46.039Z,93127.22
2019-01-28T06:49:53.483Z,93126.87
2019-01-28T06:53:01.472Z,93126.45
2019-01-28T06:56:08.954Z,93129.41
2019-01-28T06:59:16.346Z,93129.33
2019-01-28T07:02:23.912Z,93128.91
2019-01-28T07:05:31.410Z,93123.44
2019-01-28T07:08:38.902Z,93124.39
2019-01-28T07:11:46.548Z,93127.59
2019-01-28T07:14:54.357Z,93131.78
2019-01-28T07:18:02.105Z,93137.17
2019-01-28T07:21:09.711Z,93137.91
2019-01-28T07:24:17.580Z,93134.63
2019-01-28T07:27:25.703Z,93137.64
2019-01-28T07:30:37.206Z,93146.52
2019-01-28T07:33:44.939Z,93146.02
2019-01-28T07:36:53.146Z,93136.33
2019-01-28T07:40:00.672Z,93140.98
2019-01-28T07:43:08.167Z,93137.86
2019-01-28T07:46:15.835Z,93140.21
2019-01-28T07:49:23.346Z,93144.02
2019-01-28T07:52:31.121Z,93133.81
2019-01-28T07:55:39.065Z,93146.73
2019-01-28T07:58:46.289Z,93147.81
2019-01-28T08:01:53.712Z,93148.59
2019-01-28T08:05:01.748Z,93143.00
2019-01-28T08:08:09.278Z,93142.50
2019-01-28T08:11:16.946Z,93155.05
2019-01-28T08:14:24.758Z,93148.31
2019-01-28T08:17:32.292Z,93153.00
2019-01-28T08:20:39.951Z,93162.47
2019-01-28T08:23:47.286Z,93153.62
2019-01-28T08:26:54.728Z,93151.13
2019-01-28T08:30:02.376Z,93148.73
2019-01-28T08:33:09.892Z,93152.28
2019-01-28T08:36:17.380Z,93151.66
2019-01-28T08:39:24.959Z,93155.48
2019-01-28T08:42:32.632Z,93161.29
2019-01-28T08:45:40.236Z,93153.92
2019-01-28T08:48:48.621Z,93153.09
2019-01-28T08:51:56.047Z,93153.89
2019-01-28T08:55:05.406Z,93158.27
2019-01-28T08:58:12.796Z,93159.36
2019-01-28T09:01:20.585Z,93165.38
2019-01-28T09:04:28.000Z,93164.67
2019-01-28T09:07:35.512Z,93161.62
2019-01-28T09:10:43.238Z,93159.58
2019-01-28T09:13:50.732Z,93163.44
2019-01-28T09:16:58.231Z,93160.75
2019-01-28T09:20:11.269Z,93161.92
2019-01-28T09:23:18.752Z,93159.59
2019-01-28T09:26:26.825Z,93167.53
2019-01-28T09:29:34.256Z,93164.84
2019-01-28T09:32:42.694Z,93160.48
2019-01-28T09:35:50.533Z,93160.61
2019-01-28T09:38:58.036Z,93168.22
2019-01-28T09:42:05.758Z,93163.00
2019-01-28T09:45:21.288Z,93165.09
2019-01-28T09:48:34.174Z,93166.73
2019-01-28T09:51:38.510Z,93168.66
2019-01-28T09:54:46.245Z,93172.50
2019-01-28T09:57:54.139Z,93172.95
2019-01-28T10:01:02.541Z,93170.38
2019-01-28T10:04:10.678Z,93172.88
2019-01-28T10:07:18.266Z,93168.84
2019-01-28T10:10:25.865Z,93169.07
2019-01-28T10:13:33.375Z,93169.17
2019-01-28T10:16:40.871Z,93170.29
2019-01-28T10:19:48.770Z,93169.39
2019-01-28T10:22:56.274Z,93166.23
2019-01-28T10:26:04.277Z,93168.95
2019-01-28T10:29:11.820Z,93160.85
2019-01-28T10:32:19.440Z,93163.11
2019-01-28T10:35:29.202Z,93167.17
2019-01-28T10:38:36.708Z,93165.09
2019-01-28T10:41:44.723Z,93175.39
2019-01-28T10:44:52.092Z,93163.24
2019-01-28T10:48:00.963Z,93169.16
2019-01-28T10:51:08.843Z,93162.83
2019-01-28T10:54:16.648Z,93159.34
2019-01-28T10:57:24.454Z,93160.23
2019-01-28T11:00:35.724Z,93158.92
2019-01-28T11:03:43.297Z,93155.75
2019-01-28T11:06:50.805Z,93159.23
2019-01-28T11:09:58.212Z,93149.28
2019-01-28T11:13:06.613Z,93146.80
2019-01-28T11:16:14.131Z,93154.09
2019-01-28T11:19:21.740Z,93155.64
2019-01-28T11:22:29.360Z,93147.98
2019-01-28T11:25:37.186Z,93144.38
2019-01-28T11:28:44.991Z,93133.44
2019-01-28T11:31:56.263Z,93151.58
2019-01-28T11:35:04.491Z,93145.13
2019-01-28T11:38:13.740Z,93141.95
2019-01-28T11:41:21.415Z,93137.83
2019-01-28T11:44:29.044Z,93142.30
2019-01-28T11:47:37.229Z,93138.34
2019-01-28T11:50:44.922Z,93140.43
2019-01-28T11:53:52.414Z,93144.11
2019-01-28T11:56:59.732Z,93138.30
2019-01-28T12:00:16.563Z,93143.91
2019-01-28T12:03:24.123Z,93143.94
2019-01-28T12:06:32.032Z,93155.62
2019-01-28T12:09:40.109Z,93145.55
2019-01-28T12:12:47.665Z,93151.45
2019-01-28T12:15:55.642Z,93149.84
2019-01-28T12:19:03.710Z,93158.41
2019-01-28T12:22:11.617Z,93161.75
2019-01-28T12:25:19.126Z,93166.34
2019-01-28T12:28:26.627Z,93163.61
2019-01-28T12:31:34.336Z,93175.48
2019-01-28T12:34:42.034Z,93180.81
2019-01-28T12:37:49.576Z,93183.06
2019-01-28T12:40:57.138Z,93170.88
2019-01-28T12:44:05.243Z,93185.97
2019-01-28T12:47:12.663Z,93187.87
2019-01-28T12:50:20.379Z,93189.70
2019-01-28T12:53:28.238Z,93181.63
2019-01-28T12:56:36.147Z,93174.56
2019-01-28T12:59:44.016Z,93177.81
2019-01-28T13:02:52.238Z,93172.48
2019-01-28T13:05:59.762Z,93170.63
2019-01-28T13:09:08.401Z,93163.86
2019-01-28T13:12:19.312Z,93156.55
2019-01-28T13:15:27.678Z,93161.62
2019-01-28T13:18:35.382Z,93164.59
2019-01-28T13:21:42.944Z,93158.38
2019-01-28T13:24:50.433Z,93157.84
2019-01-28T13:27:58.370Z,93158.53
2019-01-28T13:31:05.913Z,93162.33
2019-01-28T13:34:13.856Z,93159.98
2019-01-28T13:37:21.399Z,93163.06
2019-01-28T13:40:29.351Z,93162.09
2019-01-28T13:43:36.954Z,93170.71
2019-01-28T13:46:44.898Z,93172.56
2019-01-28T13:49:53.396Z,93176.83
2019-01-28T13:53:01.340Z,93173.66
2019-01-28T13:56:09.307Z,93176.64
2019-01-28T13:59:17.795Z,93181.78
2019-01-28T14:02:25.449Z,93181.09
2019-01-28T14:05:33.210Z,93172.03
2019-01-28T14:08:41.181Z,93170.03
2019-01-28T14:11:48.883Z,93182.30
2019-01-28T14:14:56.631Z,93181.22
2019-01-28T14:18:05.891Z,93180.56
2019-01-28T14:21:13.727Z,93192.36
2019-01-28T14:24:21.297Z,93187.08
2019-01-28T14:27:28.872Z,93195.62
2019-01-28T14:30:45.734Z,93200.00
2019-01-28T14:33:53.315Z,93202.81
2019-01-28T14:37:00.998Z,93201.19
2019-01-28T14:40:12.250Z,93205.52
2019-01-28T14:43:20.294Z,93212.03
2019-01-28T14:46:28.044Z,93205.78
2019-01-28T14:49:36.385Z,93211.63
2019-01-28T14:52:44.792Z,93211.93
2019-01-28T14:55:52.472Z,93214.22
2019-01-28T14:59:00.249Z,93228.15
2019-01-28T15:02:08.107Z,93218.02
2019-01-28T15:05:15.901Z,93226.07
2019-01-28T15:08:23.682Z,93228.41
2019-01-28T15:11:31.725Z,93232.84
2019-01-28T15:14:39.475Z,93222.84
2019-01-28T15:17:50.080Z,93224.56
2019-01-28T15:20:57.703Z,93235.43
2019-01-28T15:24:05.283Z,93244.09
2019-01-28T15:27:15.603Z,93234.66
2019-01-28T15:30:25.885Z,93242.13
2019-01-28T15:33:34.057Z,93244.94
2019-01-28T15:36:41.864Z,93241.34
2019-01-28T15:39:49.672Z,93248.58
2019-01-28T15:42:57.891Z,93253.38
2019-01-28T15:46:06.154Z,93244.45
2019-01-28T15:49:14.053Z,93249.53
2019-01-28T15:52:21.895Z,93255.18
2019-01-28T15:55:33.188Z,93248.64
2019-01-28T15:58:41.048Z,93249.02
2019-01-28T16:01:49.007Z,93256.74
2019-01-28T16:04:56.674Z,93259.61
2019-01-28T16:08:05.357Z,93260.45
2019-01-28T16:11:13.533Z,93266.20
2019-01-28T16:14:21.647Z,93266.05
2019-01-28T16:17:29.906Z,93265.99
2019-01-28T16:20:37.858Z,93278.89
2019-01-28T16:23:45.497Z,93276.30
2019-01-28T16:26:53.188Z,93284.45
2019-01-28T16:30:00.867Z,93286.37
2019-01-28T16:33:09.269Z,93295.77
2019-01-28T16:36:17.229Z,93297.02
2019-01-28T16:39:24.865Z,93307.91
2019-01-28T16:42:32.717Z,93306.30
2019-01-28T16:45:40.451Z,93306.83
2019-01-28T16:48:48.178Z,93309.98
2019-01-28T16:51:56.057Z,93314.01
2019-01-28T16:55:05.440Z,93311.58
2019-01-28T16:58:13.603Z,93318.12
2019-01-28T17:01:23.722Z,93326.30
2019-01-28T17:04:32.032Z,93330.67
2019-01-28T17:07:39.840Z,93327.16
2019-01-28T17:10:47.438Z,93339.77
2019-01-28T17:13:55.509Z,93340.00
2019-01-28T17:17:03.546Z,93344.39
2019-01-28T17:20:16.494Z,93333.02
2019-01-28T17:23:24.499Z,93344.55
2019-01-28T17:26:32.506Z,93342.01
2019-01-28T17:29:40.499Z,93344.79
2019-01-28T17:32:48.291Z,93359.30
2019-01-28T17:35:55.916Z,93367.77
2019-01-28T17:39:06.985Z,93367.13
2019-01-28T17:42:15.007Z,93369.44
2019-01-28T17:45:23.595Z,93370.30
2019-01-28T17:48:31.670Z,93369.45
2019-01-28T17:51:39.744Z,93368.38
2019-01-28T17:54:47.268Z,93369.56
2019-01-28T17:57:55.149Z,93374.95
2019-01-28T18:01:04.075Z,93390.06
2019-01-28T18:04:11.596Z,93393.74
2019-01-28T18:07:19.246Z,93392.73
2019-01-28T18:10:27.024Z,93390.14
2019-01-28T18:13:34.731Z,93394.25
2019-01-28T18:16:42.494Z,93395.70
2019-01-28T18:19:50.590Z,93398.02
2019-01-28T18:22:58.130Z,93394.55
2019-01-28T18:26:05.770Z,93390.00
2019-01-28T18:29:14.411Z,93398.38
2019-01-28T18:32:22.758Z,93397.83
2019-01-28T18:35:30.920Z,93400.50
2019-01-28T18:38:38.860Z,93400.65
2019-01-28T18:41:52.220Z,93404.72
2019-01-28T18:44:59.971Z,93401.23
2019-01-28T18:48:08.573Z,93410.52
2019-01-28T18:51:16.910Z,93405.74
2019-01-28T18:54:24.670Z,93414.73
2019-01-28T18:57:32.287Z,93418.11
2019-01-28T19:00:40.180Z,93417.04
2019-01-28T19:03:47.715Z,93431.84
2019-01-28T19:07:33.247Z,93431.20
2019-01-28T19:10:46.326Z,93438.17
2019-01-28T19:14:04.305Z,93432.27
2019-01-28T19:17:37.168Z,93439.72
2019-01-28T19:20:53.218Z,93440.38
2019-01-28T19:24:01.298Z,93445.12
2019-01-28T19:27:08.991Z,93459.33
2019-01-28T19:30:20.079Z,93448.54
2019-01-28T19:33:27.734Z,93459.14
2019-01-28T19:36:35.656Z,93459.77
2019-01-28T19:39:44.550Z,93471.94
2019-01-28T19:42:52.739Z,93472.95
2019-01-28T19:46:00.402Z,93472.62
2019-01-28T19:49:08.081Z,93478.85
2019-01-28T19:52:16.263Z,93489.36
2019-01-28T19:55:24.033Z,93489.92
2019-01-28T19:58:32.414Z,93499.27
2019-01-28T20:01:40.094Z,93500.52
2019-01-28T20:04:51.116Z,93507.28
2019-01-28T20:07:59.340Z,93508.83
2019-01-28T20:11:07.233Z,93513.05
2019-01-28T20:14:16.143Z,93521.65
2019-01-28T20:17:24.432Z,93529.23
2019-01-28T20:20:33.453Z,93530.83
2019-01-28T20:23:42.235Z,93531.90
2019-01-28T20:26:50.157Z,93537.84
2019-01-28T20:29:58.172Z,93545.30
2019-01-28T20:33:06.973Z,93546.66
2019-01-28T20:36:15.435Z,93549.22
2019-01-28T20:39:23.529Z,93555.36
2019-01-28T20:42:31.619Z,93557.45
2019-01-28T20:45:44.922Z,93565.37
2019-01-28T20:48:49.298Z,93575.62
2019-01-28T20:51:58.535Z,93579.66
2019-01-28T20:55:06.496Z,93591.05
2019-01-28T20:58:14.414Z,93588.98
2019-01-28T21:01:23.740Z,93591.53
2019-01-28T21:04:34.780Z,93599.58
2019-01-28T21:07:45.956Z,93609.59
2019-01-28T21:10:53.843Z,93615.94
2019-01-28T21:14:01.752Z,93612.92
2019-01-28T21:17:09.333Z,93613.85
2019-01-28T21:20:17.399Z,93615.05
2019-01-28T21:23:26.738Z,93617.10
2019-01-28T21:26:36.984Z,93631.07
2019-01-28T21:29:44.507Z,93626.25
2019-01-28T21:32:52.407Z,93627.45
2019-01-28T21:36:23.299Z,93636.09
2019-01-28T21:39:34.170Z,93638.80
2019-01-28T21:42:41.995Z,93641.50
2019-01-28T21:45:49.755Z,93648.50
2019-01-28T21:48:57.618Z,93644.39
2019-01-28T21:52:08.417Z,93648.84
2019-01-28T21:55:16.252Z,93654.31
2019-01-28T21:58:27.584Z,93653.54
2019-01-28T22:01:35.395Z,93660.97
2019-01-28T22:04:43.317Z,93656.28
2019-01-28T22:07:52.599Z,93666.23
2019-01-28T22:11:01.010Z,93664.97
2019-01-28T22:14:08.696Z,93667.05
2019-01-28T22:17:16.746Z,93672.03
2019-01-28T22:20:24.653Z,93678.92
2019-01-28T22:23:32.300Z,93676.31
2019-01-28T22:26:39.950Z,93684.88
2019-01-28T22:29:48.418Z,93683.73
2019-01-28T22:32:56.262Z,93685.45
2019-01-28T22:36:04.691Z,93695.23
2019-01-28T22:39:13.539Z,93696.02
2019-01-28T22:42:21.810Z,93704.38
2019-01-28T22:45:30.175Z,93702.53
2019-01-28T22:48:38.226Z,93705.52
2019-01-28T22:51:45.863Z,93710.66
2019-01-28T22:54:55.319Z,93719.27
2019-01-28T22:58:03.417Z,93720.28
2019-01-28T23:01:24.884Z,93722.94
2019-01-28T23:04:32.970Z,93731.61
2019-01-28T23:07:43.278Z,93726.81
2019-01-28T23:10:50.797Z,93739.98
2019-01-28T23:13:59.730Z,93739.73
2019-01-28T23:17:07.493Z,93740.44
2019-01-28T23:20:18.539Z,93744.11
2019-01-28T23:23:26.331Z,93748.47
2019-01-28T23:26:33.845Z,93748.87
2019-01-28T23:29:41.473Z,93752.78
2019-01-28T23:32:49.011Z,93753.07
2019-01-28T23:35:56.543Z,93762.73
2019-01-28T23:39:07.234Z,93756.70
2019-01-28T23:42:15.234Z,93760.33
2019-01-28T23:45:22.791Z,93762.20
2019-01-28T23:48:30.515Z,93767.14
2019-01-28T23:51:38.263Z,93770.94
2019-01-28T23:54:45.734Z,93770.45
2019-01-28T23:57:56.832Z,93771.14
